Venez Explorer Les Airs Avec Nous!

Que ce soit pour un vol de découverte, pour apprendre l’art du pilotage ou pour voyager, venez nous rejoindre.

Information en heures locale pour LFDL
15 July 2019

Metar
LFBI 151900Z AUTO 03009KT 9999 ////// 24/09 Q1017

Lever du soleil aéronautique : 03:50

Lever du soleil : 04:20

Coucher du soleil :19:50

Coucher du soleil aéronautique :20:20

Contacts

Téléphone

Club:
07-66-57-42-61

Michel Richez (président):
06-52-73-09-01

Adresse

Aéroclub de Loudun
Bellevue
86200 Loudun

Vous vous trouvez sur un site temporaire.

Un site définitif sera disponible rapidement, en attendant vous pouvez nous contacter via les informations ci-dessus

Fermer le menu